Time;durP1;ratioP1;P1;durP2;ratioP2;P2;SDS_P1;SDS_P2;PMS_P1;PMS_P2;Temp;Humidity;BMP_temperature;BMP_pressure;BME280_temperature;BME280_humidity;BME280_pressure;Samples;Min_cycle;Max_cycle;Signal;HPM_P1;HPM_P2
2021/10/09 00:00:53;;;;;;;31.33;24.52;;;12.80;99.90;;;;;;5072054;28;20290;-77
2021/10/09 00:03:19;;;;;;;40.78;26.50;;;12.90;99.90;;;;;;5070823;28;20556;-77
2021/10/09 00:05:45;;;;;;;39.25;24.63;;;12.90;99.90;;;;;;5071082;28;20293;-77
2021/10/09 00:08:14;;;;;;;35.55;24.77;;;12.80;99.90;;;;;;5071992;28;20194;-77
2021/10/09 00:10:40;;;;;;;37.33;24.85;;;12.70;99.90;;;;;;5072387;28;20215;-78
2021/10/09 00:13:06;;;;;;;36.88;25.90;;;12.70;99.90;;;;;;5072391;28;20159;-77
2021/10/09 00:15:32;;;;;;;37.35;25.60;;;12.80;99.90;;;;;;5072612;28;20167;-77
2021/10/09 00:18:00;;;;;;;43.17;25.77;;;12.90;99.90;;;;;;5071983;28;20190;-77
2021/10/09 00:20:29;;;;;;;37.97;25.77;;;12.90;99.90;;;;;;5070591;28;20241;-77
2021/10/09 00:22:55;;;;;;;38.53;25.27;;;12.80;99.90;;;;;;5072182;28;20210;-78
2021/10/09 00:25:21;;;;;;;37.85;25.38;;;12.80;99.90;;;;;;5072083;28;20181;-78
2021/10/09 00:27:47;;;;;;;40.42;27.20;;;12.70;99.90;;;;;;5072052;28;20186;-78
2021/10/09 00:30:13;;;;;;;46.45;28.67;;;12.60;99.90;;;;;;5071989;28;20186;-78
2021/10/09 00:32:38;;;;;;;42.00;28.08;;;12.60;99.90;;;;;;5070647;28;20528;-78
2021/10/09 00:35:05;;;;;;;44.83;29.98;;;12.50;99.90;;;;;;5071700;28;20618;-78
2021/10/09 00:37:30;;;;;;;43.88;28.05;;;12.60;99.90;;;;;;5070174;28;20190;-77
2021/10/09 00:39:56;;;;;;;43.13;27.55;;;12.40;99.90;;;;;;5072196;28;20167;-77
2021/10/09 00:42:22;;;;;;;43.83;28.55;;;12.40;99.90;;;;;;5071871;28;20633;-78
2021/10/09 00:44:48;;;;;;;42.03;28.10;;;12.30;99.90;;;;;;5071764;28;20185;-77
2021/10/09 00:47:15;;;;;;;47.20;28.42;;;12.30;99.90;;;;;;5071582;28;20654;-77
2021/10/09 00:49:40;;;;;;;48.47;29.52;;;12.10;99.90;;;;;;5072105;28;20174;-77
2021/10/09 00:52:09;;;;;;;46.72;27.77;;;12.10;99.90;;;;;;5071964;28;20523;-78
2021/10/09 00:54:37;;;;;;;42.00;28.05;;;12.10;99.90;;;;;;5073211;28;20174;-78
2021/10/09 00:57:04;;;;;;;40.30;27.92;;;12.00;99.90;;;;;;5075272;28;20544;-78
2021/10/09 00:59:29;;;;;;;44.47;29.02;;;12.00;99.90;;;;;;5074211;28;20174;-78
2021/10/09 01:02:00;;;;;;;42.58;27.90;;;11.90;99.90;;;;;;5075018;28;20694;-78
2021/10/09 01:04:27;;;;;;;42.40;28.73;;;11.80;99.90;;;;;;5075353;28;20566;-77
2021/10/09 01:06:52;;;;;;;42.38;28.58;;;11.70;99.90;;;;;;5075318;28;20186;-78
2021/10/09 01:09:18;;;;;;;43.42;27.75;;;11.60;99.90;;;;;;5075358;28;20178;-78
2021/10/09 01:11:44;;;;;;;37.08;27.42;;;11.70;99.90;;;;;;5074985;28;20166;-77
2021/10/09 01:14:10;;;;;;;47.55;29.45;;;11.70;99.90;;;;;;5075239;28;20253;-78
2021/10/09 01:16:35;;;;;;;39.78;27.88;;;11.80;99.90;;;;;;5073666;28;20577;-77
2021/10/09 01:19:01;;;;;;;50.35;30.15;;;12.00;99.90;;;;;;5075070;28;20213;-77
2021/10/09 01:21:36;;;;;;;45.42;29.90;;;12.00;99.90;;;;;;5075022;28;20917;-77
2021/10/09 01:24:02;;;;;;;42.72;29.70;;;11.80;99.90;;;;;;5073931;28;20740;-77
2021/10/09 01:26:28;;;;;;;47.75;30.35;;;11.80;99.90;;;;;;5073773;28;20186;-85
2021/10/09 01:28:53;;;;;;;40.50;27.75;;;11.80;99.90;;;;;;5093820;28;20182;-77
2021/10/09 01:31:19;;;;;;;50.55;28.85;;;11.80;99.90;;;;;;5094863;28;20534;-77
2021/10/09 01:33:45;;;;;;;41.85;29.90;;;11.80;99.90;;;;;;5095189;28;20174;-77
2021/10/09 01:36:11;;;;;;;43.72;29.63;;;11.80;99.90;;;;;;5095614;28;20173;-77
2021/10/09 01:38:38;;;;;;;46.85;29.45;;;11.80;99.90;;;;;;5054023;28;20184;-77
2021/10/09 01:41:05;;;;;;;53.05;30.83;;;11.90;99.90;;;;;;5054832;28;20163;-77
2021/10/09 01:43:31;;;;;;;48.20;31.15;;;11.90;99.90;;;;;;5054357;28;20230;-77
2021/10/09 01:45:56;;;;;;;41.60;29.52;;;11.80;99.90;;;;;;5054319;28;20498;-77
2021/10/09 01:48:31;;;;;;;49.72;31.13;;;11.90;99.90;;;;;;5052739;28;20639;-77
2021/10/09 01:50:57;;;;;;;46.50;30.15;;;11.80;99.90;;;;;;5054500;28;20276;-77
2021/10/09 01:53:23;;;;;;;48.80;31.73;;;11.70;99.90;;;;;;5052889;28;20262;-76
2021/10/09 01:55:48;;;;;;;49.28;31.95;;;11.70;99.90;;;;;;5054322;28;20171;-76
2021/10/09 01:58:14;;;;;;;53.40;31.13;;;11.60;99.90;;;;;;5053885;28;20201;-77
2021/10/09 02:00:39;;;;;;;51.08;30.52;;;11.60;99.90;;;;;;5054631;28;20159;-77
2021/10/09 02:03:07;;;;;;;48.88;31.13;;;11.60;99.90;;;;;;5054080;28;20199;-77
2021/10/09 02:05:35;;;;;;;54.33;31.08;;;11.60;99.90;;;;;;5053685;28;20615;-77
2021/10/09 02:08:01;;;;;;;45.63;30.35;;;11.40;99.90;;;;;;5054034;28;20269;-77
2021/10/09 02:10:28;;;;;;;50.10;31.35;;;11.40;99.90;;;;;;5054150;28;20195;-77
2021/10/09 02:12:54;;;;;;;47.95;29.05;;;11.60;99.90;;;;;;5054145;28;20194;-77
2021/10/09 02:15:36;;;;;;;42.60;29.17;;;11.50;99.90;;;;;;5054058;28;20238;-77
2021/10/09 02:26:15;;;;;;;52.15;30.05;;;11.40;99.90;;;;;;5020150;28;20224;-79
2021/10/09 02:28:41;;;;;;;41.30;28.35;;;11.50;99.90;;;;;;5073869;28;20197;-77
2021/10/09 02:31:06;;;;;;;45.80;28.90;;;11.50;99.90;;;;;;5073587;28;20236;-78
2021/10/09 02:33:32;;;;;;;47.83;28.92;;;11.30;99.90;;;;;;5073730;28;20239;-77
2021/10/09 02:35:57;;;;;;;46.03;29.85;;;11.20;99.90;;;;;;5073878;28;20175;-77
2021/10/09 02:38:23;;;;;;;51.00;31.50;;;11.30;99.90;;;;;;5073092;28;20195;-77
2021/10/09 02:40:49;;;;;;;45.30;28.58;;;11.50;99.90;;;;;;5073056;28;20174;-77
2021/10/09 02:43:15;;;;;;;46.17;30.05;;;11.60;99.90;;;;;;5072949;28;20206;-76
2021/10/09 02:45:41;;;;;;;44.60;28.55;;;11.40;99.90;;;;;;5073163;28;20217;-77
2021/10/09 02:48:08;;;;;;;43.65;28.70;;;11.30;99.90;;;;;;5072422;28;20270;-77
2021/10/09 02:50:34;;;;;;;49.20;29.70;;;11.20;99.90;;;;;;5073110;28;20181;-77
2021/10/09 02:53:00;;;;;;;50.58;29.45;;;11.30;99.90;;;;;;5071967;28;20539;-77
2021/10/09 02:55:26;;;;;;;51.97;30.95;;;11.30;99.90;;;;;;5073075;28;20241;-77
2021/10/09 02:57:52;;;;;;;49.72;30.95;;;11.30;99.90;;;;;;5071889;28;20285;-77
2021/10/09 03:00:20;;;;;;;50.33;31.13;;;11.30;99.90;;;;;;5073373;28;20162;-77
2021/10/09 03:02:45;;;;;;;54.70;32.97;;;11.20;99.90;;;;;;5072912;28;20206;-77
2021/10/09 03:05:12;;;;;;;60.25;32.75;;;11.00;99.90;;;;;;5072765;28;20167;-77
2021/10/09 03:07:38;;;;;;;49.00;31.65;;;11.00;99.90;;;;;;5072810;28;20200;-77
2021/10/09 03:10:06;;;;;;;47.83;31.90;;;11.10;99.90;;;;;;5073206;28;20238;-77
2021/10/09 03:12:31;;;;;;;54.58;31.63;;;11.10;99.90;;;;;;5072975;28;20177;-77
2021/10/09 03:14:57;;;;;;;52.35;31.83;;;11.00;99.90;;;;;;5071870;28;20170;-77
2021/10/09 03:17:23;;;;;;;58.92;32.40;;;11.00;99.90;;;;;;5072255;28;20182;-77
2021/10/09 03:19:48;;;;;;;54.20;32.40;;;11.10;99.90;;;;;;5071905;28;20183;-77
2021/10/09 03:22:14;;;;;;;52.15;32.03;;;10.90;99.90;;;;;;5073144;28;20197;-77
2021/10/09 03:24:40;;;;;;;53.30;32.83;;;10.90;99.90;;;;;;5073164;28;20170;-77
2021/10/09 03:27:06;;;;;;;61.38;32.97;;;10.90;99.90;;;;;;5071606;28;20701;-77
2021/10/09 03:29:31;;;;;;;54.42;33.83;;;11.00;99.90;;;;;;5072815;28;20182;-77
2021/10/09 03:31:57;;;;;;;52.35;32.88;;;11.10;99.90;;;;;;5072784;28;20162;-77
2021/10/09 03:34:23;;;;;;;57.53;33.10;;;11.20;99.90;;;;;;5072859;28;20178;-76
2021/10/09 03:36:48;;;;;;;58.22;33.70;;;11.00;99.90;;;;;;5072319;28;20186;-77
2021/10/09 03:39:18;;;;;;;55.65;33.35;;;10.90;99.90;;;;;;5071490;28;20235;-77
2021/10/09 03:41:49;;;;;;;55.10;33.72;;;10.80;99.90;;;;;;5072715;28;20567;-77
2021/10/09 03:44:14;;;;;;;62.00;32.55;;;10.90;99.90;;;;;;5072788;28;20206;-77
2021/10/09 03:46:44;;;;;;;55.83;32.78;;;10.90;99.90;;;;;;5072650;28;20523;-77
2021/10/09 03:49:39;;;;;;;62.35;35.15;;;11.00;99.90;;;;;;5072694;28;20159;-77
2021/10/09 03:54:49;;;;;;;65.78;36.60;;;10.90;99.90;;;;;;5072336;28;20542;-77
2021/10/09 03:57:14;;;;;;;55.38;35.03;;;10.60;99.90;;;;;;5071007;28;20191;-77
2021/10/09 03:59:40;;;;;;;55.90;34.40;;;10.70;99.90;;;;;;5070850;28;20175;-77
2021/10/09 04:02:06;;;;;;;73.50;38.75;;;10.80;99.90;;;;;;5072337;28;20173;-78
2021/10/09 04:04:31;;;;;;;67.82;36.30;;;10.70;99.90;;;;;;5072127;28;20201;-78
2021/10/09 04:06:57;;;;;;;64.07;36.30;;;10.70;99.90;;;;;;5072116;28;20261;-77
2021/10/09 04:09:23;;;;;;;63.97;35.63;;;10.80;99.90;;;;;;5072269;28;20610;-77
2021/10/09 04:11:48;;;;;;;61.25;35.72;;;10.70;99.90;;;;;;5072433;28;20223;-78
2021/10/09 04:14:14;;;;;;;69.85;36.42;;;10.70;99.90;;;;;;5072294;28;20626;-77
2021/10/09 04:16:39;;;;;;;65.10;36.90;;;10.60;99.90;;;;;;5071929;28;20190;-77
2021/10/09 04:19:05;;;;;;;73.32;38.78;;;10.80;99.90;;;;;;5072288;28;20173;-77
2021/10/09 04:21:31;;;;;;;73.97;38.72;;;10.90;99.90;;;;;;5070869;28;20166;-77
2021/10/09 04:23:56;;;;;;;68.53;37.42;;;10.90;99.90;;;;;;5072030;28;20242;-77
2021/10/09 04:26:22;;;;;;;63.33;38.35;;;10.80;99.90;;;;;;5071813;28;20603;-77
2021/10/09 04:28:48;;;;;;;66.70;35.17;;;10.80;99.90;;;;;;5074257;28;20197;-77
2021/10/09 04:31:14;;;;;;;73.70;37.05;;;10.80;99.90;;;;;;5075744;28;20653;-77
2021/10/09 04:33:40;;;;;;;72.38;38.05;;;11.00;99.90;;;;;;5076317;28;20185;-77
2021/10/09 04:36:08;;;;;;;68.70;36.15;;;11.10;99.90;;;;;;5075960;28;20249;-77
2021/10/09 04:38:34;;;;;;;78.28;35.45;;;11.00;99.90;;;;;;5075801;28;20179;-77
2021/10/09 04:41:00;;;;;;;71.78;37.28;;;11.00;99.90;;;;;;5076225;28;20248;-77
2021/10/09 04:43:26;;;;;;;80.00;37.00;;;10.90;99.90;;;;;;5075898;28;20203;-77
2021/10/09 04:45:52;;;;;;;83.47;37.20;;;11.00;99.90;;;;;;5075890;28;20630;-77
2021/10/09 04:48:17;;;;;;;71.97;36.20;;;11.10;99.90;;;;;;5075765;28;20244;-78
2021/10/09 04:50:43;;;;;;;82.70;37.28;;;11.00;99.90;;;;;;5075528;28;20167;-78
2021/10/09 04:53:09;;;;;;;74.03;37.47;;;10.90;99.90;;;;;;5075435;28;20173;-78
2021/10/09 04:55:35;;;;;;;82.70;39.45;;;11.10;99.90;;;;;;5075505;28;20171;-78
2021/10/09 04:58:00;;;;;;;88.72;37.30;;;11.20;99.90;;;;;;5074116;28;20187;-78
2021/10/09 05:00:26;;;;;;;84.30;38.30;;;11.20;99.90;;;;;;5075514;28;20614;-77
2021/10/09 05:02:52;;;;;;;78.13;38.50;;;11.20;99.90;;;;;;5075369;28;20344;-78
2021/10/09 05:05:17;;;;;;;104.13;38.88;;;11.30;99.90;;;;;;5075559;28;20178;-79
2021/10/09 05:07:43;;;;;;;85.00;38.55;;;11.30;99.90;;;;;;5074070;28;20554;-78
2021/10/09 05:10:09;;;;;;;77.35;36.47;;;11.00;99.90;;;;;;5075351;28;20685;-78
2021/10/09 05:12:36;;;;;;;67.30;36.20;;;11.00;99.90;;;;;;5075285;28;20162;-78
2021/10/09 05:15:04;;;;;;;63.83;33.50;;;10.80;99.90;;;;;;5075171;28;20253;-78
2021/10/09 05:17:30;;;;;;;64.45;33.97;;;10.90;99.90;;;;;;5073550;28;20637;-79
2021/10/09 05:19:55;;;;;;;69.60;34.92;;;10.80;99.90;;;;;;5074885;28;20237;-78
2021/10/09 05:22:21;;;;;;;64.43;34.35;;;10.70;99.90;;;;;;5073525;28;20257;-79
2021/10/09 05:24:50;;;;;;;80.57;36.47;;;10.60;99.90;;;;;;5075196;28;20186;-79
2021/10/09 05:27:16;;;;;;;73.63;35.88;;;10.70;99.90;;;;;;5074902;28;20194;-78
2021/10/09 05:29:41;;;;;;;73.38;36.03;;;10.60;99.90;;;;;;5075364;28;20265;-77
2021/10/09 05:32:07;;;;;;;96.57;35.00;;;10.80;99.90;;;;;;5075100;28;20166;-78
2021/10/09 05:34:33;;;;;;;76.13;35.40;;;10.90;99.90;;;;;;5074906;28;20175;-78
2021/10/09 05:36:59;;;;;;;81.13;35.75;;;10.90;99.90;;;;;;5074582;28;20532;-76
2021/10/09 05:39:25;;;;;;;71.63;33.50;;;10.80;99.90;;;;;;5074341;28;20198;-79
2021/10/09 05:41:51;;;;;;;84.47;35.65;;;10.60;99.90;;;;;;5074185;28;20205;-77
2021/10/09 05:44:17;;;;;;;69.75;33.08;;;10.60;99.90;;;;;;5074616;28;20206;-77
2021/10/09 05:46:42;;;;;;;83.07;35.03;;;10.60;99.90;;;;;;5074216;28;20186;-77
2021/10/09 05:49:09;;;;;;;85.72;34.10;;;10.50;99.90;;;;;;5074252;28;20511;-78
2021/10/09 05:51:38;;;;;;;78.30;33.97;;;10.40;99.90;;;;;;5074242;28;20159;-77
2021/10/09 05:54:29;;;;;;;83.65;34.17;;;10.50;99.90;;;;;;5073035;28;20878;-78
2021/10/09 06:43:04;;;;;;;46.47;25.92;;;10.40;99.90;;;;;;5073455;28;20173;-78
2021/10/09 07:01:14;;;;;;;46.45;26.95;;;10.40;99.90;;;;;;5072810;28;20741;-77
2021/10/09 07:03:39;;;;;;;58.83;29.10;;;10.40;99.90;;;;;;5072665;28;20301;-77
2021/10/09 07:06:06;;;;;;;43.25;26.30;;;10.50;99.90;;;;;;5073290;28;20237;-78
2021/10/09 07:08:31;;;;;;;42.88;26.48;;;10.50;99.90;;;;;;5073331;28;20243;-78
2021/10/09 07:11:00;;;;;;;42.45;27.02;;;10.60;99.90;;;;;;5073445;28;20227;-78
2021/10/09 07:13:26;;;;;;;47.38;26.58;;;10.70;99.90;;;;;;5073181;28;20162;-78
2021/10/09 07:15:51;;;;;;;48.70;26.60;;;10.80;99.90;;;;;;5072738;28;20571;-77
2021/10/09 07:18:17;;;;;;;50.35;27.42;;;10.80;99.90;;;;;;5072804;28;20186;-77
2021/10/09 07:20:42;;;;;;;43.95;25.83;;;10.90;99.90;;;;;;5071521;28;20695;-77
2021/10/09 07:23:11;;;;;;;44.78;26.80;;;11.00;99.90;;;;;;5071397;28;20237;-77
2021/10/09 07:25:37;;;;;;;39.13;25.35;;;11.20;99.90;;;;;;5071093;28;20574;-77
2021/10/09 07:28:03;;;;;;;40.40;25.48;;;11.30;99.90;;;;;;5072215;28;20221;-77
2021/10/09 07:30:30;;;;;;;41.30;25.15;;;11.40;99.90;;;;;;5072701;28;20181;-77
2021/10/09 07:32:57;;;;;;;35.08;23.30;;;11.30;99.90;;;;;;5072563;28;20163;-77
2021/10/09 07:35:23;;;;;;;34.17;23.30;;;11.30;99.90;;;;;;5072528;28;20622;-77
2021/10/09 07:37:49;;;;;;;35.60;23.63;;;11.40;99.90;;;;;;5072523;28;20548;-77
2021/10/09 07:40:16;;;;;;;39.55;24.33;;;11.50;99.90;;;;;;5070841;28;20169;-78
2021/10/09 07:42:42;;;;;;;41.22;24.20;;;11.40;99.90;;;;;;5072429;28;20193;-77
2021/10/09 07:45:08;;;;;;;38.03;24.48;;;11.50;99.90;;;;;;5072755;28;20170;-77
2021/10/09 07:47:33;;;;;;;38.15;25.52;;;11.20;99.90;;;;;;5072217;28;20228;-78
2021/10/09 07:49:59;;;;;;;37.70;24.60;;;11.30;99.90;;;;;;5072179;28;20205;-77
2021/10/09 07:52:25;;;;;;;41.60;24.67;;;11.00;99.90;;;;;;5071978;28;20252;-77
2021/10/09 07:54:50;;;;;;;49.55;24.60;;;11.00;99.90;;;;;;5072112;28;20166;-78
2021/10/09 07:57:16;;;;;;;36.35;24.88;;;11.20;99.90;;;;;;5072124;28;20193;-77
2021/10/09 07:59:41;;;;;;;45.78;25.25;;;11.30;99.90;;;;;;5072246;28;20626;-77
2021/10/09 08:02:07;;;;;;;41.65;25.35;;;11.50;99.90;;;;;;5072190;28;20243;-77
2021/10/09 08:04:33;;;;;;;36.92;23.70;;;11.70;99.90;;;;;;5071773;28;20288;-77
2021/10/09 08:06:59;;;;;;;46.53;25.67;;;11.80;99.90;;;;;;5071942;28;20174;-77
2021/10/09 08:09:29;;;;;;;44.53;25.45;;;11.70;99.90;;;;;;5072225;28;20185;-77
2021/10/09 08:11:54;;;;;;;39.60;24.50;;;11.60;99.90;;;;;;5071962;28;20170;-76
2021/10/09 08:14:20;;;;;;;41.22;25.55;;;11.40;99.90;;;;;;5071994;28;20167;-76
2021/10/09 08:16:46;;;;;;;40.33;23.65;;;11.40;99.90;;;;;;5071794;28;20187;-77
2021/10/09 08:19:11;;;;;;;44.92;25.10;;;11.50;99.90;;;;;;5072117;28;20523;-77
2021/10/09 08:21:41;;;;;;;46.65;24.30;;;11.60;99.90;;;;;;5071841;28;20169;-77
2021/10/09 08:24:17;;;;;;;43.03;25.52;;;11.50;99.90;;;;;;5070772;28;20242;-77
2021/10/09 08:27:08;;;;;;;45.97;26.10;;;11.50;99.90;;;;;;5071651;28;20179;-78
2021/10/09 08:40:31;;;;;;;51.60;26.40;;;11.80;99.90;;;;;;5072325;28;20194;-77
2021/10/09 08:42:57;;;;;;;42.53;25.15;;;11.80;99.90;;;;;;5070302;28;20555;-77
2021/10/09 08:45:22;;;;;;;45.83;26.58;;;12.00;99.90;;;;;;5071389;28;20177;-76
2021/10/09 08:47:49;;;;;;;46.95;26.80;;;12.10;99.90;;;;;;5071145;28;20277;-76
2021/10/09 08:50:15;;;;;;;41.92;26.15;;;12.20;99.90;;;;;;5071447;28;20668;-76
2021/10/09 08:53:07;;;;;;;49.78;27.25;;;12.10;99.90;;;;;;5071176;28;20198;-76
2021/10/09 08:55:35;;;;;;;39.13;24.00;;;12.10;99.90;;;;;;5071432;28;20170;-77
2021/10/09 08:58:10;;;;;;;51.67;27.85;;;12.00;99.90;;;;;;5071494;28;20210;-77
2021/10/09 09:00:52;;;;;;;41.13;24.33;;;12.00;99.90;;;;;;5071514;28;20170;-77
2021/10/09 09:03:26;;;;;;;48.05;26.73;;;12.10;99.90;;;;;;5071439;28;20280;-76
2021/10/09 09:27:41;;;;;;;44.78;26.98;;;12.90;99.90;;;;;;5075033;28;20255;-79
2021/10/09 09:41:19;;;;;;;43.58;26.75;;;13.10;99.90;;;;;;5074667;28;20273;-77
2021/10/09 09:43:45;;;;;;;50.85;27.30;;;13.30;99.90;;;;;;5074965;28;20212;-77
2021/10/09 09:46:14;;;;;;;44.50;25.63;;;13.40;99.90;;;;;;5074503;28;20167;-76
2021/10/09 09:48:42;;;;;;;43.97;26.67;;;13.40;99.90;;;;;;5074648;28;20170;-76
2021/10/09 09:51:09;;;;;;;44.70;27.27;;;13.60;99.90;;;;;;5074454;28;20174;-76
2021/10/09 09:53:36;;;;;;;40.67;24.52;;;13.60;99.90;;;;;;5074047;28;20247;-76
2021/10/09 09:56:02;;;;;;;41.30;25.80;;;13.70;99.90;;;;;;5074483;28;20630;-76
2021/10/09 09:58:33;;;;;;;48.35;26.80;;;13.70;99.90;;;;;;5073816;28;20270;-75
2021/10/09 10:01:00;;;;;;;43.35;26.13;;;13.80;99.90;;;;;;5074103;28;20526;-76
2021/10/09 10:03:29;;;;;;;39.97;23.83;;;13.90;99.90;;;;;;5073801;28;20198;-76
2021/10/09 10:05:55;;;;;;;42.70;25.45;;;14.00;99.90;;;;;;5074246;28;20224;-76
2021/10/09 10:08:22;;;;;;;42.67;24.20;;;14.00;99.90;;;;;;5074289;28;20186;-77
2021/10/09 10:10:52;;;;;;;37.40;23.55;;;14.00;99.90;;;;;;5072598;28;20220;-78
2021/10/09 10:13:18;;;;;;;35.80;23.20;;;14.20;99.90;;;;;;5073745;28;20652;-77
2021/10/09 10:15:45;;;;;;;28.50;18.70;;;14.30;99.90;;;;;;5073850;28;20166;-78
2021/10/09 10:18:13;;;;;;;37.22;21.13;;;14.60;99.90;;;;;;5073654;28;20686;-77
2021/10/09 10:20:58;;;;;;;32.10;18.88;;;14.60;99.90;;;;;;5073866;28;20205;-77
2021/10/09 10:23:38;;;;;;;31.75;19.70;;;14.60;99.90;;;;;;5073053;28;20309;-76
2021/10/09 10:26:26;;;;;;;28.33;18.60;;;14.60;99.90;;;;;;5072276;28;20182;-77
2021/10/09 10:28:55;;;;;;;28.95;19.73;;;14.60;99.90;;;;;;5073489;28;20216;-77
2021/10/09 10:31:21;;;;;;;29.65;19.42;;;14.60;99.90;;;;;;5073705;28;20188;-78
2021/10/09 10:33:56;;;;;;;29.52;18.33;;;14.70;99.90;;;;;;5073683;28;20229;-76
2021/10/09 10:36:44;;;;;;;27.77;18.63;;;14.80;99.90;;;;;;5073169;28;20166;-76
2021/10/09 10:39:10;;;;;;;25.85;18.27;;;14.90;99.90;;;;;;5073279;28;20170;-77
2021/10/09 10:42:09;;;;;;;31.38;20.17;;;15.10;99.90;;;;;;5073061;28;20162;-77
2021/10/09 10:45:13;;;;;;;33.88;19.60;;;15.20;99.90;;;;;;5073264;28;20202;-77
2021/10/09 10:50:49;;;;;;;31.20;18.35;;;15.20;99.90;;;;;;5067587;28;20182;-83
2021/10/09 10:53:27;;;;;;;22.98;17.33;;;15.20;99.90;;;;;;5093089;28;20177;-76
2021/10/09 10:56:09;;;;;;;28.58;17.95;;;15.30;99.90;;;;;;5093156;28;20183;-76
2021/10/09 10:58:39;;;;;;;28.17;17.05;;;15.40;99.90;;;;;;5074338;28;20197;-79
2021/10/09 11:01:34;;;;;;;28.55;17.30;;;15.40;99.90;;;;;;5062311;28;20174;-77
2021/10/09 11:03:59;;;;;;;22.17;15.80;;;15.60;99.90;;;;;;5058422;28;20237;-77
2021/10/09 11:06:26;;;;;;;30.55;16.80;;;15.70;99.90;;;;;;5073670;28;20160;-82
2021/10/09 11:08:53;;;;;;;21.58;16.27;;;15.90;99.90;;;;;;5073927;28;20190;-77
2021/10/09 11:11:42;;;;;;;28.63;14.32;;;15.90;99.90;;;;;;5072297;28;20181;-77
2021/10/09 11:14:07;;;;;;;26.27;15.18;;;15.90;99.90;;;;;;5072368;28;20500;-77
2021/10/09 11:16:33;;;;;;;27.88;15.07;;;15.90;99.90;;;;;;5072482;28;20194;-80
2021/10/09 11:18:59;;;;;;;23.27;14.05;;;15.90;99.90;;;;;;5071720;28;20635;-81
2021/10/09 11:21:25;;;;;;;19.73;13.15;;;16.00;99.90;;;;;;5072649;28;20504;-79
2021/10/09 11:23:56;;;;;;;18.35;13.57;;;16.00;99.90;;;;;;5072701;28;20201;-80
2021/10/09 11:26:25;;;;;;;24.38;14.23;;;15.90;99.90;;;;;;5073064;28;20637;-88
2021/10/09 11:29:01;;;;;;;20.88;12.43;;;16.00;99.90;;;;;;5072336;28;20522;-77
2021/10/09 11:31:28;;;;;;;21.40;12.82;;;16.20;99.90;;;;;;5071628;28;20645;-78
2021/10/09 11:33:58;;;;;;;16.90;12.25;;;16.30;99.90;;;;;;5072938;28;20158;-79
2021/10/09 11:36:25;;;;;;;16.77;11.20;;;16.40;99.90;;;;;;5073772;28;20579;-79
2021/10/09 11:39:04;;;;;;;23.95;13.80;;;16.30;99.90;;;;;;5074818;28;20630;-81
2021/10/09 11:41:30;;;;;;;13.80;11.68;;;16.50;99.90;;;;;;5072521;28;20251;-86
2021/10/09 11:44:05;;;;;;;15.63;11.73;;;16.30;99.90;;;;;;5072697;28;20260;-78
2021/10/09 11:55:21;;;;;;;25.13;13.23;;;16.50;99.90;;;;;;5072876;28;20244;-80
2021/10/09 11:57:49;;;;;;;18.10;13.55;;;16.50;99.90;;;;;;5072256;28;20185;-80
2021/10/09 12:00:29;;;;;;;17.65;12.45;;;16.60;99.90;;;;;;5072280;28;20166;-83
2021/10/09 12:03:00;;;;;;;16.05;10.55;;;16.70;99.90;;;;;;5072587;28;20205;-86
2021/10/09 12:05:33;;;;;;;22.83;11.65;;;17.00;99.90;;;;;;5072307;28;20173;-81
2021/10/09 12:08:14;;;;;;;14.88;12.35;;;17.00;99.90;;;;;;5071957;28;20179;-79
2021/10/09 12:10:40;;;;;;;16.77;13.20;;;16.80;99.90;;;;;;5071890;28;20166;-80
2021/10/09 12:13:06;;;;;;;20.05;12.80;;;16.80;99.90;;;;;;5072117;28;20173;-80
2021/10/09 12:15:36;;;;;;;17.88;12.93;;;16.90;99.90;;;;;;5071215;28;20170;-81
2021/10/09 12:18:02;;;;;;;14.18;12.35;;;16.90;99.90;;;;;;5071470;28;20222;-81
2021/10/09 12:20:29;;;;;;;19.80;12.70;;;17.10;99.90;;;;;;5070717;28;20200;-80
2021/10/09 12:22:58;;;;;;;19.40;12.40;;;17.00;99.90;;;;;;5071706;28;20693;-81
2021/10/09 12:25:26;;;;;;;23.05;15.05;;;16.80;99.90;;;;;;5071847;28;20185;-81
2021/10/09 12:28:01;;;;;;;18.10;12.98;;;16.80;99.90;;;;;;5070429;28;20194;-81
2021/10/09 12:30:44;;;;;;;18.27;13.00;;;17.00;99.90;;;;;;5070450;28;20592;-80
2021/10/09 12:33:09;;;;;;;22.65;13.18;;;17.00;99.90;;;;;;5070361;28;20166;-80
2021/10/09 12:35:36;;;;;;;20.45;12.95;;;17.20;99.90;;;;;;5071720;28;20692;-81
2021/10/09 12:38:09;;;;;;;20.15;12.18;;;17.20;99.90;;;;;;5069736;28;20195;-80
2021/10/09 12:40:36;;;;;;;16.52;12.23;;;17.20;99.90;;;;;;5071283;28;20217;-81
2021/10/09 12:43:02;;;;;;;16.20;12.02;;;17.20;99.90;;;;;;5071731;28;20206;-80
2021/10/09 12:45:30;;;;;;;20.50;12.77;;;17.40;99.90;;;;;;5071675;28;20171;-80
2021/10/09 12:47:57;;;;;;;15.25;10.90;;;17.40;99.90;;;;;;5070162;28;20625;-80
2021/10/09 12:50:29;;;;;;;18.13;12.60;;;17.40;99.90;;;;;;5074716;28;20235;-81
2021/10/09 12:52:56;;;;;;;22.60;13.98;;;17.50;99.90;;;;;;5074142;28;20163;-81
2021/10/09 12:55:23;;;;;;;23.05;12.93;;;17.50;99.90;;;;;;5075149;28;20174;-81
2021/10/09 12:57:53;;;;;;;21.77;12.23;;;17.60;99.90;;;;;;5075240;28;20269;-81
2021/10/09 13:00:21;;;;;;;15.55;11.30;;;17.60;99.90;;;;;;5075300;28;20254;-81
2021/10/09 13:02:47;;;;;;;20.65;12.75;;;17.60;99.90;;;;;;5073353;28;20585;-80
2021/10/09 13:05:13;;;;;;;23.67;12.75;;;17.60;99.90;;;;;;5075356;28;20220;-80
2021/10/09 13:07:39;;;;;;;19.33;11.93;;;17.70;99.90;;;;;;5073872;28;20195;-80
2021/10/09 13:10:06;;;;;;;17.02;11.18;;;17.70;99.90;;;;;;5075095;28;20163;-81
2021/10/09 13:12:32;;;;;;;11.88;10.70;;;17.60;99.90;;;;;;5075092;28;20167;-81
2021/10/09 13:14:58;;;;;;;15.27;10.88;;;17.60;99.90;;;;;;5075305;28;20639;-81
2021/10/09 13:17:23;;;;;;;14.70;8.90;;;17.50;99.90;;;;;;5074589;28;20198;-79
2021/10/09 13:19:49;;;;;;;15.48;11.35;;;17.50;99.90;;;;;;5074777;28;20162;-81
2021/10/09 13:22:15;;;;;;;15.45;9.75;;;17.60;99.90;;;;;;5074600;28;20211;-79
2021/10/09 13:24:41;;;;;;;13.65;8.40;;;17.50;99.90;;;;;;5074630;28;20292;-81
2021/10/09 13:27:06;;;;;;;17.38;10.70;;;17.60;99.90;;;;;;5074711;28;20182;-80
2021/10/09 13:29:32;;;;;;;14.10;9.60;;;17.60;99.90;;;;;;5073332;28;20277;-81
2021/10/09 13:31:58;;;;;;;11.40;10.10;;;17.60;99.90;;;;;;5074412;28;20522;-81
2021/10/09 13:34:24;;;;;;;13.77;9.98;;;17.60;99.90;;;;;;5073492;28;20174;-81
2021/10/09 13:36:50;;;;;;;16.77;9.45;;;17.60;99.90;;;;;;5074475;28;20185;-81
2021/10/09 13:39:16;;;;;;;13.35;9.52;;;17.70;99.90;;;;;;5074579;28;20249;-81
2021/10/09 13:41:42;;;;;;;11.63;9.55;;;17.50;99.90;;;;;;5074905;28;20170;-81
2021/10/09 13:44:08;;;;;;;11.30;8.88;;;17.60;99.90;;;;;;5074892;28;20218;-83
2021/10/09 13:46:33;;;;;;;14.10;9.30;;;17.60;99.90;;;;;;5074398;28;20179;-81
2021/10/09 13:48:59;;;;;;;12.07;8.73;;;17.50;99.90;;;;;;5075431;28;20163;-87
2021/10/09 13:51:25;;;;;;;10.82;9.55;;;17.60;99.90;;;;;;5076510;28;20194;-86
2021/10/09 13:53:51;;;;;;;11.95;9.45;;;17.60;99.90;;;;;;5073822;28;20492;-83
2021/10/09 13:56:17;;;;;;;14.55;9.63;;;17.70;99.90;;;;;;5076524;28;20227;-82
2021/10/09 13:58:43;;;;;;;16.90;9.43;;;17.80;99.90;;;;;;5077529;28;20645;-90
2021/10/09 14:01:08;;;;;;;9.73;8.73;;;17.90;99.90;;;;;;5074450;28;20205;-85
2021/10/09 14:03:36;;;;;;;10.02;8.70;;;17.80;99.90;;;;;;5074868;28;20206;-81
2021/10/09 14:06:02;;;;;;;11.48;9.15;;;17.80;99.90;;;;;;5073146;28;20173;-82
2021/10/09 14:08:29;;;;;;;9.15;8.23;;;17.80;99.90;;;;;;5077045;28;20185;-86
2021/10/09 14:10:55;;;;;;;13.88;8.35;;;17.90;99.90;;;;;;5075381;28;20190;-81
2021/10/09 14:13:23;;;;;;;23.20;8.38;;;18.00;99.90;;;;;;5073126;28;20265;-80
2021/10/09 14:15:49;;;;;;;12.80;7.75;;;17.80;99.90;;;;;;5074694;28;20262;-81
2021/10/09 14:18:16;;;;;;;9.82;7.32;;;17.70;99.90;;;;;;5074979;28;20186;-84
2021/10/09 14:20:54;;;;;;;17.02;8.40;;;17.60;99.90;;;;;;5074451;28;20291;-86
2021/10/09 14:23:20;;;;;;;16.35;9.10;;;17.60;99.90;;;;;;5074952;28;20220;-81
2021/10/09 14:25:47;;;;;;;10.10;7.85;;;17.60;99.90;;;;;;5074334;28;20177;-82
2021/10/09 14:28:13;;;;;;;9.02;7.72;;;17.90;99.90;;;;;;5074690;28;20240;-81
2021/10/09 14:30:40;;;;;;;11.40;7.40;;;17.90;99.90;;;;;;5073099;28;20215;-84
2021/10/09 14:33:06;;;;;;;11.98;7.45;;;17.90;99.90;;;;;;5072397;28;20177;-80
2021/10/09 14:35:32;;;;;;;25.13;7.93;;;17.90;99.90;;;;;;5074027;28;20171;-81
2021/10/09 14:37:58;;;;;;;13.48;7.85;;;17.80;99.90;;;;;;5072090;28;20190;-81
2021/10/09 14:40:25;;;;;;;9.77;6.85;;;17.70;99.90;;;;;;5073400;28;20689;-81